createdAt,value
2018-12-12T00:01:48.388Z,1.00
2018-12-12T00:04:51.480Z,1.13
2018-12-12T00:07:54.633Z,1.23
2018-12-12T00:10:57.890Z,1.27
2018-12-12T00:14:00.997Z,1.20
2018-12-12T00:17:04.236Z,1.23
2018-12-12T00:20:07.432Z,1.13
2018-12-12T00:23:10.542Z,1.17
2018-12-12T00:26:13.721Z,1.23
2018-12-12T00:29:16.899Z,1.00
2018-12-12T00:32:20.049Z,1.17
2018-12-12T00:35:23.287Z,0.90
2018-12-12T00:38:26.365Z,1.20
2018-12-12T00:41:29.478Z,0.93
2018-12-12T00:44:32.643Z,1.30
2018-12-12T00:47:35.799Z,1.13
2018-12-12T00:50:38.953Z,1.17
2018-12-12T00:53:42.190Z,1.03
2018-12-12T00:56:45.390Z,0.93
2018-12-12T00:59:48.664Z,1.03
2018-12-12T01:02:51.865Z,1.10
2018-12-12T01:05:54.972Z,1.00
2018-12-12T01:08:58.125Z,1.00
2018-12-12T01:12:06.269Z,0.90
2018-12-12T01:15:09.421Z,1.00
2018-12-12T01:18:12.666Z,1.10
2018-12-12T01:21:15.814Z,0.80
2018-12-12T01:24:18.970Z,0.80
2018-12-12T01:27:22.111Z,1.00
2018-12-12T01:30:25.242Z,0.90
2018-12-12T01:33:28.486Z,0.90
2018-12-12T01:36:31.561Z,0.93
2018-12-12T01:39:35.198Z,1.10
2018-12-12T01:42:38.351Z,1.00
2018-12-12T01:45:41.437Z,0.80
2018-12-12T01:48:44.512Z,0.90
2018-12-12T01:51:47.692Z,0.87
2018-12-12T01:54:50.856Z,0.93
2018-12-12T01:57:53.989Z,1.00
2018-12-12T02:00:57.107Z,0.70
2018-12-12T02:04:00.204Z,1.07
2018-12-12T02:07:03.260Z,1.20
2018-12-12T02:10:06.972Z,0.90
2018-12-12T02:13:21.512Z,0.90
2018-12-12T02:16:25.164Z,1.10
2018-12-12T02:19:28.482Z,0.90
2018-12-12T02:22:31.641Z,1.37
2018-12-12T02:25:34.768Z,1.10
2018-12-12T02:28:37.890Z,1.03
2018-12-12T02:31:41.009Z,1.00
2018-12-12T02:34:44.086Z,0.90
2018-12-12T02:37:47.222Z,0.97
2018-12-12T02:40:50.424Z,0.90
2018-12-12T02:43:53.594Z,0.90
2018-12-12T02:46:56.713Z,0.90
2018-12-12T02:49:59.802Z,1.10
2018-12-12T02:53:03.033Z,0.90
2018-12-12T02:56:06.142Z,0.87
2018-12-12T02:59:09.260Z,0.70
2018-12-12T03:02:12.349Z,1.07
2018-12-12T03:05:15.479Z,0.90
2018-12-12T03:08:18.619Z,0.83
2018-12-12T03:11:24.032Z,0.80
2018-12-12T03:14:27.136Z,1.00
2018-12-12T03:17:30.210Z,0.70
2018-12-12T03:20:33.367Z,1.00
2018-12-12T03:23:36.569Z,1.00
2018-12-12T03:26:39.796Z,0.97
2018-12-12T03:29:42.975Z,0.93
2018-12-12T03:32:46.100Z,0.80
2018-12-12T03:35:50.378Z,0.80
2018-12-12T03:38:53.472Z,0.80
2018-12-12T03:41:56.595Z,0.80
2018-12-12T03:44:59.817Z,0.90
2018-12-12T03:48:02.943Z,0.77
2018-12-12T03:51:06.129Z,0.80
2018-12-12T03:54:09.270Z,0.80
2018-12-12T03:57:12.417Z,0.80
2018-12-12T04:00:15.552Z,0.77
2018-12-12T04:03:18.709Z,0.80
2018-12-12T04:06:21.798Z,0.70
2018-12-12T04:09:24.923Z,0.70
2018-12-12T04:12:28.006Z,0.90
2018-12-12T04:15:31.232Z,0.70
2018-12-12T04:18:34.401Z,0.90
2018-12-12T04:21:37.579Z,0.90
2018-12-12T04:24:41.085Z,0.80
2018-12-12T04:27:44.192Z,0.73
2018-12-12T04:30:47.347Z,1.27
2018-12-12T04:33:50.470Z,0.90
2018-12-12T04:36:53.669Z,0.70
2018-12-12T04:39:56.774Z,0.73
2018-12-12T04:42:59.924Z,0.90
2018-12-12T04:46:03.127Z,0.83
2018-12-12T04:49:06.215Z,0.67
2018-12-12T04:52:09.293Z,0.70
2018-12-12T04:55:12.399Z,0.90
2018-12-12T04:58:15.641Z,1.20
2018-12-12T05:01:18.742Z,0.90
2018-12-12T05:04:22.882Z,0.80
2018-12-12T05:07:26.004Z,0.80
2018-12-12T05:10:29.087Z,1.43
2018-12-12T05:13:32.220Z,1.00
2018-12-12T05:16:35.432Z,1.00
2018-12-12T05:19:38.597Z,1.03
2018-12-12T05:22:41.770Z,0.80
2018-12-12T05:25:44.881Z,1.00
2018-12-12T05:28:48.104Z,1.00
2018-12-12T05:31:51.320Z,0.90
2018-12-12T05:34:54.408Z,0.80
2018-12-12T05:37:57.598Z,0.80
2018-12-12T05:41:00.716Z,0.90
2018-12-12T05:44:03.959Z,0.83
2018-12-12T05:47:07.049Z,0.87
2018-12-12T05:50:10.514Z,0.87
2018-12-12T05:53:13.738Z,0.80
2018-12-12T05:56:16.878Z,0.90
2018-12-12T05:59:26.542Z,0.80
2018-12-12T06:02:29.637Z,0.90
2018-12-12T06:05:32.850Z,0.80
2018-12-12T06:08:36.082Z,0.70
2018-12-12T06:11:40.303Z,0.67
2018-12-12T06:14:43.585Z,0.80
2018-12-12T06:17:47.826Z,0.90
2018-12-12T06:20:51.010Z,0.80
2018-12-12T06:23:54.095Z,0.70
2018-12-12T06:26:57.299Z,0.90
2018-12-12T06:30:00.411Z,1.10
2018-12-12T06:33:04.567Z,2.90
2018-12-12T06:36:07.698Z,4.37
2018-12-12T06:39:10.817Z,6.20
2018-12-12T06:42:13.941Z,5.37
2018-12-12T06:45:19.135Z,5.80
2018-12-12T06:48:22.279Z,5.43
2018-12-12T06:51:25.440Z,4.93
2018-12-12T06:54:29.752Z,4.00
2018-12-12T06:57:32.862Z,3.97
2018-12-12T07:00:35.969Z,3.70
2018-12-12T07:03:39.125Z,3.73
2018-12-12T07:06:42.241Z,3.27
2018-12-12T07:09:45.329Z,3.10
2018-12-12T07:12:48.578Z,2.97
2018-12-12T07:15:51.668Z,2.77
2018-12-12T07:18:55.153Z,2.70
2018-12-12T07:21:58.245Z,2.27
2018-12-12T07:25:02.438Z,2.33
2018-12-12T07:28:05.554Z,2.27
2018-12-12T07:31:08.818Z,2.03
2018-12-12T07:34:11.958Z,2.33
2018-12-12T07:37:16.169Z,1.87
2018-12-12T07:40:19.318Z,1.83
2018-12-12T07:43:22.846Z,1.70
2018-12-12T07:46:26.055Z,1.70
2018-12-12T07:49:29.323Z,1.60
2018-12-12T07:52:32.573Z,1.63
2018-12-12T07:55:35.726Z,1.60
2018-12-12T07:58:38.922Z,1.43
2018-12-12T08:01:42.103Z,1.50
2018-12-12T08:04:45.259Z,1.77
2018-12-12T08:07:48.362Z,1.43
2018-12-12T08:10:51.609Z,1.47
2018-12-12T08:13:54.755Z,2.00
2018-12-12T08:16:57.994Z,1.50
2018-12-12T08:20:01.111Z,1.53
2018-12-12T08:23:04.489Z,1.70
2018-12-12T08:26:07.627Z,1.43
2018-12-12T08:32:20.556Z,1.40
2018-12-12T08:35:23.767Z,1.47
2018-12-12T08:38:26.923Z,1.47
2018-12-12T08:41:30.045Z,1.40
2018-12-12T08:44:33.151Z,1.70
2018-12-12T08:47:36.331Z,1.40
2018-12-12T08:50:39.401Z,1.57
2018-12-12T08:53:42.506Z,1.43
2018-12-12T08:56:45.630Z,1.70
2018-12-12T08:59:48.911Z,1.33
2018-12-12T09:02:52.171Z,1.70
2018-12-12T09:05:55.416Z,1.40
2018-12-12T09:08:58.542Z,1.30
2018-12-12T09:12:05.282Z,1.50
2018-12-12T09:15:08.561Z,1.20
2018-12-12T09:18:11.756Z,1.30
2018-12-12T09:21:14.884Z,1.40
2018-12-12T09:24:18.054Z,1.20
2018-12-12T09:27:21.167Z,1.37
2018-12-12T09:30:24.360Z,1.40
2018-12-12T09:33:27.591Z,1.60
2018-12-12T09:36:30.743Z,1.30
2018-12-12T09:39:33.887Z,1.10
2018-12-12T09:42:37.090Z,1.30
2018-12-12T09:45:40.206Z,1.50
2018-12-12T09:48:43.289Z,1.37
2018-12-12T09:51:46.404Z,1.23
2018-12-12T09:54:50.584Z,1.13
2018-12-12T09:57:53.709Z,1.33
2018-12-12T10:00:57.887Z,1.27
2018-12-12T10:04:01.080Z,1.33
2018-12-12T10:07:04.260Z,1.30
2018-12-12T10:10:07.452Z,1.23
2018-12-12T10:14:14.036Z,1.23
2018-12-12T10:17:18.325Z,1.30
2018-12-12T10:20:21.407Z,1.00
2018-12-12T10:23:24.583Z,1.30
2018-12-12T10:26:27.754Z,1.23
2018-12-12T10:32:40.325Z,1.10
2018-12-12T10:35:43.584Z,1.27
2018-12-12T10:38:46.758Z,1.10
2018-12-12T10:41:49.994Z,1.20
2018-12-12T10:44:53.141Z,1.37
2018-12-12T10:47:56.320Z,1.10
2018-12-12T10:50:59.530Z,1.07
2018-12-12T10:54:02.634Z,1.17
2018-12-12T10:57:05.812Z,1.20
2018-12-12T11:00:12.895Z,1.30
2018-12-12T11:03:21.239Z,1.37
2018-12-12T11:06:24.535Z,1.17
2018-12-12T11:09:27.691Z,1.70
2018-12-12T11:12:30.882Z,1.30
2018-12-12T11:15:34.076Z,1.47
2018-12-12T11:18:37.277Z,1.30
2018-12-12T11:21:40.381Z,1.40
2018-12-12T11:24:43.559Z,1.10
2018-12-12T11:27:46.751Z,1.37
2018-12-12T11:30:49.975Z,1.50
2018-12-12T11:33:53.103Z,1.27
2018-12-12T11:36:56.301Z,1.30
2018-12-12T11:40:00.514Z,1.37
2018-12-12T11:43:03.656Z,1.50
2018-12-12T11:46:06.866Z,1.20
2018-12-12T11:49:09.967Z,1.20
2018-12-12T11:52:13.137Z,1.40
2018-12-12T11:55:16.306Z,1.30
2018-12-12T11:58:19.422Z,1.23
2018-12-12T12:01:22.546Z,1.40
2018-12-12T12:04:25.672Z,1.50
2018-12-12T12:07:28.754Z,1.30
2018-12-12T12:10:31.953Z,1.33
2018-12-12T12:13:35.074Z,1.33
2018-12-12T12:16:38.189Z,1.57
2018-12-12T12:19:41.386Z,1.33
2018-12-12T12:22:51.094Z,1.10
2018-12-12T12:25:54.370Z,1.50
2018-12-12T12:28:57.795Z,1.30
2018-12-12T12:32:00.954Z,1.40
2018-12-12T12:35:04.404Z,1.40
2018-12-12T12:38:07.523Z,1.30
2018-12-12T12:41:10.737Z,1.47
2018-12-12T12:44:14.096Z,1.30
2018-12-12T12:47:17.282Z,1.40
2018-12-12T12:50:20.412Z,1.33
2018-12-12T12:53:23.645Z,1.33
2018-12-12T12:56:26.934Z,1.30
2018-12-12T12:59:30.096Z,1.20
2018-12-12T13:02:33.283Z,1.20
2018-12-12T13:05:36.489Z,1.43
2018-12-12T13:08:39.691Z,1.30
2018-12-12T13:11:42.878Z,1.43
2018-12-12T13:14:46.064Z,1.30
2018-12-12T13:17:49.283Z,1.30
2018-12-12T13:20:52.518Z,1.50
2018-12-12T13:23:55.734Z,1.43
2018-12-12T13:26:58.912Z,1.50
2018-12-12T13:30:02.186Z,1.30
2018-12-12T13:33:05.420Z,1.30
2018-12-12T13:36:08.667Z,1.20
2018-12-12T13:39:11.965Z,1.30
2018-12-12T13:42:15.196Z,1.60
2018-12-12T13:45:18.364Z,1.40
2018-12-12T13:48:21.543Z,1.47
2018-12-12T13:51:24.720Z,1.40
2018-12-12T13:54:27.890Z,1.40
2018-12-12T13:57:31.098Z,1.47
2018-12-12T14:00:39.091Z,1.40
2018-12-12T14:03:39.358Z,1.70
2018-12-12T14:06:42.550Z,1.43
2018-12-12T14:09:45.751Z,1.40
2018-12-12T14:12:49.057Z,1.40
2018-12-12T14:15:52.314Z,1.30
2018-12-12T14:18:55.428Z,1.50
2018-12-12T14:21:58.629Z,1.40
2018-12-12T14:25:01.742Z,1.80
2018-12-12T14:28:05.018Z,1.40
2018-12-12T14:31:08.326Z,1.40
2018-12-12T14:34:11.554Z,1.40
2018-12-12T14:37:14.694Z,1.40
2018-12-12T14:40:17.887Z,1.23
2018-12-12T14:43:20.988Z,1.20
2018-12-12T14:46:24.076Z,1.17
2018-12-12T14:49:27.190Z,1.40
2018-12-12T14:52:31.436Z,1.40
2018-12-12T14:55:34.734Z,1.40
2018-12-12T14:58:37.811Z,1.20
2018-12-12T15:01:40.967Z,1.37
2018-12-12T15:04:44.123Z,1.23
2018-12-12T15:07:47.279Z,1.33
2018-12-12T15:10:50.510Z,1.20
2018-12-12T15:13:54.687Z,1.20
2018-12-12T15:16:57.791Z,1.27
2018-12-12T15:20:00.927Z,1.40
2018-12-12T15:23:04.225Z,1.20
2018-12-12T15:26:07.352Z,1.10
2018-12-12T15:29:10.507Z,1.10
2018-12-12T15:32:13.621Z,1.20
2018-12-12T15:35:16.840Z,1.50
2018-12-12T15:38:20.061Z,1.43
2018-12-12T15:41:23.299Z,1.40
2018-12-12T15:44:26.521Z,1.50
2018-12-12T15:47:29.732Z,1.33
2018-12-12T15:50:32.849Z,1.50
2018-12-12T15:53:36.184Z,1.30
2018-12-12T15:56:39.362Z,1.33
2018-12-12T15:59:42.495Z,1.30
2018-12-12T16:02:45.895Z,1.20
2018-12-12T16:05:49.143Z,1.30
2018-12-12T16:08:52.344Z,1.20
2018-12-12T16:11:55.430Z,1.27
2018-12-12T16:14:58.671Z,1.37
2018-12-12T16:18:01.766Z,1.43
2018-12-12T16:21:04.945Z,1.30
2018-12-12T16:24:08.043Z,1.23
2018-12-12T16:27:11.302Z,1.40
2018-12-12T16:30:14.444Z,1.60
2018-12-12T16:33:17.631Z,1.10
2018-12-12T16:36:20.760Z,1.30
2018-12-12T16:39:23.939Z,1.30
2018-12-12T16:42:27.136Z,1.50
2018-12-12T16:45:30.411Z,1.53
2018-12-12T16:48:33.531Z,1.47
2018-12-12T16:51:36.808Z,1.20
2018-12-12T16:54:40.243Z,1.50
2018-12-12T16:57:43.512Z,1.33
2018-12-12T17:00:46.622Z,1.40
2018-12-12T17:03:53.602Z,1.33
2018-12-12T17:06:56.888Z,1.30
2018-12-12T17:30:42.355Z,1.90
2018-12-12T17:33:49.933Z,2.00
2018-12-12T17:37:02.341Z,1.83
2018-12-12T17:40:13.221Z,2.20
2018-12-12T17:43:17.476Z,2.47
2018-12-12T17:46:20.644Z,2.40
2018-12-12T17:49:25.778Z,103.00
2018-12-12T17:52:28.947Z,77.97
2018-12-12T17:55:32.026Z,58.90
2018-12-12T17:58:35.171Z,49.67
2018-12-12T18:01:38.367Z,50.00
2018-12-12T18:04:41.547Z,45.90
2018-12-12T18:07:44.710Z,38.13
2018-12-12T18:10:50.755Z,33.23
2018-12-12T18:13:53.921Z,28.40
2018-12-12T18:16:57.098Z,25.33
2018-12-12T18:20:01.791Z,21.37
2018-12-12T18:23:05.076Z,18.57
2018-12-12T18:26:08.985Z,15.70
2018-12-12T18:29:12.193Z,13.07
2018-12-12T18:32:15.358Z,10.93
2018-12-12T18:35:21.849Z,10.77
2018-12-12T18:38:23.764Z,9.83
2018-12-12T18:41:26.949Z,8.70
2018-12-12T18:44:30.179Z,8.00
2018-12-12T18:47:33.390Z,7.20
2018-12-12T18:50:36.620Z,7.23
2018-12-12T18:57:17.768Z,6.40
2018-12-12T19:00:21.055Z,5.60
2018-12-12T19:03:24.188Z,5.20
2018-12-12T19:06:27.560Z,5.30
2018-12-12T19:09:30.864Z,4.73
2018-12-12T19:12:34.176Z,5.17
2018-12-12T19:15:37.478Z,4.20
2018-12-12T19:18:40.793Z,3.90
2018-12-12T19:21:44.071Z,4.50
2018-12-12T19:24:47.284Z,4.07
2018-12-12T19:27:50.456Z,4.20
2018-12-12T19:30:53.708Z,3.60
2018-12-12T19:33:56.966Z,3.40
2018-12-12T19:37:00.231Z,3.30
2018-12-12T19:40:03.587Z,3.53
2018-12-12T19:43:06.761Z,3.53
2018-12-12T19:46:09.963Z,3.40
2018-12-12T19:49:13.072Z,3.60
2018-12-12T19:52:16.362Z,17.17
2018-12-12T19:55:19.570Z,30.83
2018-12-12T19:58:22.911Z,42.53
2018-12-12T20:01:26.179Z,18.87
2018-12-12T20:04:29.451Z,15.37
2018-12-12T20:07:32.954Z,13.13
2018-12-12T20:10:36.347Z,11.90
2018-12-12T20:13:39.581Z,10.03
2018-12-12T20:16:42.815Z,9.07
2018-12-12T20:19:46.117Z,9.27
2018-12-12T20:22:49.245Z,7.27
2018-12-12T20:25:52.535Z,6.10
2018-12-12T20:28:55.716Z,5.57
2018-12-12T20:31:58.940Z,5.63
2018-12-12T20:35:02.143Z,5.00
2018-12-12T20:38:07.419Z,5.30
2018-12-12T20:41:10.618Z,4.80
2018-12-12T20:44:13.900Z,4.53
2018-12-12T20:47:17.133Z,4.60
2018-12-12T20:50:20.421Z,4.50
2018-12-12T20:53:23.623Z,4.77
2018-12-12T20:56:26.910Z,4.20
2018-12-12T20:59:31.179Z,4.40
2018-12-12T21:02:34.536Z,4.40
2018-12-12T21:05:37.821Z,5.07
2018-12-12T21:08:42.026Z,4.33
2018-12-12T21:11:45.280Z,4.20
2018-12-12T21:14:48.608Z,4.13
2018-12-12T21:17:51.783Z,4.43
2018-12-12T21:20:55.047Z,15.93
2018-12-12T21:23:58.204Z,64.83
2018-12-12T21:27:01.485Z,60.57
2018-12-12T21:30:05.054Z,53.87
2018-12-12T21:33:08.255Z,50.43
2018-12-12T21:36:11.433Z,42.83
2018-12-12T21:39:14.559Z,39.03
2018-12-12T21:42:17.681Z,32.00
2018-12-12T21:45:20.834Z,28.00
2018-12-12T21:48:24.161Z,25.83
2018-12-12T21:51:27.461Z,21.43
2018-12-12T21:54:30.591Z,49.83
2018-12-12T21:57:33.789Z,57.53
2018-12-12T22:00:37.078Z,41.37
2018-12-12T22:03:40.288Z,34.67
2018-12-12T22:06:43.444Z,27.93
2018-12-12T22:09:46.644Z,23.30
2018-12-12T22:12:50.007Z,19.27
2018-12-12T22:15:53.174Z,16.23
2018-12-12T22:18:56.361Z,13.43
2018-12-12T22:21:59.562Z,11.50
2018-12-12T22:25:02.731Z,11.80
2018-12-12T22:28:06.594Z,10.53
2018-12-12T22:31:09.825Z,10.10
2018-12-12T22:34:13.236Z,8.93
2018-12-12T22:37:16.392Z,8.30
2018-12-12T22:40:19.551Z,7.87
2018-12-12T22:43:22.708Z,7.00
2018-12-12T22:46:25.826Z,7.13
2018-12-12T22:49:28.942Z,5.90
2018-12-12T22:52:32.086Z,5.50
2018-12-12T22:55:35.238Z,5.60
2018-12-12T22:58:38.402Z,5.37
2018-12-12T23:01:41.575Z,5.60
2018-12-12T23:04:44.764Z,5.20
2018-12-12T23:07:47.960Z,4.83
2018-12-12T23:10:51.162Z,4.57
2018-12-12T23:13:54.281Z,4.20
2018-12-12T23:16:57.554Z,4.07
2018-12-12T23:20:01.769Z,4.10
2018-12-12T23:23:04.943Z,3.80
2018-12-12T23:26:08.090Z,3.70
2018-12-12T23:29:11.228Z,3.67
2018-12-12T23:33:38.898Z,2.90
2018-12-12T23:36:42.166Z,2.93
2018-12-12T23:39:45.444Z,2.80
2018-12-12T23:42:48.663Z,2.57
2018-12-12T23:45:51.854Z,2.57
2018-12-12T23:48:54.986Z,2.60
2018-12-12T23:51:58.142Z,2.20
2018-12-12T23:55:01.264Z,2.27
2018-12-12T23:58:04.555Z,1.90
